createdAt,value
2022-09-28T00:00:56.889Z,7.39
2022-09-28T00:02:04.433Z,7.38
2022-09-28T00:03:06.591Z,7.39
2022-09-28T00:04:09.265Z,7.42
2022-09-28T00:05:12.169Z,7.39
2022-09-28T00:06:18.325Z,7.39
2022-09-28T00:07:19.880Z,7.36
2022-09-28T00:08:21.458Z,7.36
2022-09-28T00:09:25.423Z,7.34
2022-09-28T00:10:27.158Z,7.33
2022-09-28T00:11:29.079Z,7.34
2022-09-28T00:12:31.004Z,7.32
2022-09-28T00:13:34.708Z,7.21
2022-09-28T00:14:40.030Z,7.27
2022-09-28T00:15:41.934Z,7.24
2022-09-28T00:16:43.885Z,7.22
2022-09-28T00:17:45.535Z,7.19
2022-09-28T00:18:47.680Z,7.16
2022-09-28T00:19:49.344Z,7.12
2022-09-28T00:20:59.310Z,7.09
2022-09-28T00:22:00.915Z,7.04
2022-09-28T00:23:02.565Z,7.04
2022-09-28T00:24:18.487Z,7.03
2022-09-28T00:25:21.486Z,6.98
2022-09-28T00:26:23.355Z,6.94
2022-09-28T00:27:25.057Z,6.93
2022-09-28T00:28:27.048Z,6.92
2022-09-28T00:29:32.677Z,6.89
2022-09-28T00:30:34.321Z,6.88
2022-09-28T00:31:36.395Z,6.86
2022-09-28T00:32:38.780Z,6.87
2022-09-28T00:33:40.496Z,6.86
2022-09-28T00:34:45.318Z,6.84
2022-09-28T00:35:46.962Z,6.83
2022-09-28T00:36:48.891Z,6.83
2022-09-28T00:37:51.703Z,6.79
2022-09-28T00:38:57.574Z,6.80
2022-09-28T00:39:59.240Z,6.74
2022-09-28T00:41:01.144Z,6.73
2022-09-28T00:42:03.719Z,6.72
2022-09-28T00:43:23.978Z,6.73
2022-09-28T00:44:25.795Z,6.73
2022-09-28T00:45:29.174Z,6.72
2022-09-28T00:46:38.430Z,6.71
2022-09-28T00:47:48.934Z,6.72
2022-09-28T00:48:54.325Z,6.73
2022-09-28T00:49:55.959Z,6.76
2022-09-28T00:50:59.472Z,6.78
2022-09-28T00:52:02.959Z,6.76
2022-09-28T00:53:08.938Z,6.74
2022-09-28T00:54:11.594Z,6.72
2022-09-28T00:55:16.080Z,6.69
2022-09-28T00:56:20.940Z,6.68
2022-09-28T00:57:29.568Z,6.67
2022-09-28T00:58:33.208Z,6.63
2022-09-28T00:59:34.938Z,6.61
2022-09-28T01:00:37.288Z,6.57
2022-09-28T01:01:39.033Z,6.53
2022-09-28T01:02:41.615Z,6.51
2022-09-28T01:03:48.169Z,6.48
2022-09-28T01:04:51.694Z,6.39
2022-09-28T01:05:54.622Z,6.31
2022-09-28T01:06:58.484Z,6.27
2022-09-28T01:08:01.576Z,6.20
2022-09-28T01:09:05.446Z,6.14
2022-09-28T01:10:08.101Z,6.08
2022-09-28T01:11:12.183Z,6.04
2022-09-28T01:12:13.918Z,6.03
2022-09-28T01:13:16.674Z,6.03
2022-09-28T01:14:20.169Z,5.95
2022-09-28T01:15:22.733Z,5.97
2022-09-28T01:16:30.954Z,5.95
2022-09-28T01:17:43.901Z,5.90
2022-09-28T01:19:04.612Z,5.89
2022-09-28T01:20:10.899Z,5.84
2022-09-28T01:21:18.614Z,5.76
2022-09-28T01:22:22.393Z,5.73
2022-09-28T01:23:24.006Z,5.73
2022-09-28T01:24:44.347Z,5.70
2022-09-28T01:26:02.643Z,5.69
2022-09-28T01:27:10.477Z,5.65
2022-09-28T01:28:14.517Z,5.64
2022-09-28T01:29:38.648Z,5.63
2022-09-28T01:30:45.928Z,5.60
2022-09-28T01:31:52.354Z,5.58
2022-09-28T01:33:00.023Z,5.56
2022-09-28T01:34:12.637Z,5.58
2022-09-28T01:35:14.784Z,5.57
2022-09-28T01:36:17.022Z,5.53
2022-09-28T01:37:19.958Z,5.49
2022-09-28T01:38:24.752Z,5.47
2022-09-28T01:39:32.101Z,5.47
2022-09-28T01:40:35.996Z,5.49
2022-09-28T01:41:39.838Z,5.47
2022-09-28T01:42:44.398Z,5.45
2022-09-28T01:43:49.493Z,5.43
2022-09-28T01:44:54.771Z,5.43
2022-09-28T01:46:01.457Z,5.44
2022-09-28T01:47:04.376Z,5.41
2022-09-28T01:48:07.453Z,5.40
2022-09-28T01:49:14.402Z,5.42
2022-09-28T01:50:20.045Z,5.40
2022-09-28T01:51:25.084Z,5.37
2022-09-28T01:52:50.143Z,5.35
2022-09-28T01:53:59.914Z,5.34
2022-09-28T01:55:02.495Z,5.34
2022-09-28T01:56:15.659Z,5.34
2022-09-28T01:57:31.388Z,5.35
2022-09-28T01:58:44.433Z,5.31
2022-09-28T01:59:50.965Z,5.31
2022-09-28T02:00:55.549Z,5.30
2022-09-28T02:02:06.588Z,5.30
2022-09-28T02:03:16.356Z,5.29
2022-09-28T02:04:28.515Z,5.30
2022-09-28T02:05:32.627Z,5.29
2022-09-28T02:06:41.638Z,5.27
2022-09-28T02:07:54.063Z,5.27
2022-09-28T02:08:58.720Z,5.26
2022-09-28T02:10:10.690Z,5.25
2022-09-28T02:11:16.300Z,5.21
2022-09-28T02:12:22.624Z,5.24
2022-09-28T02:13:32.278Z,5.25
2022-09-28T02:14:37.766Z,5.26
2022-09-28T02:15:46.536Z,5.26
2022-09-28T02:16:50.362Z,5.27
2022-09-28T02:17:56.766Z,5.27
2022-09-28T02:18:58.554Z,5.27
2022-09-28T02:20:03.030Z,5.30
2022-09-28T02:21:15.784Z,5.31
2022-09-28T02:22:42.535Z,5.31
2022-09-28T02:23:50.718Z,5.32
2022-09-28T02:24:57.229Z,5.35
2022-09-28T02:26:06.170Z,5.36
2022-09-28T02:27:28.100Z,5.37
2022-09-28T02:28:29.946Z,5.44
2022-09-28T02:29:32.063Z,5.43
2022-09-28T02:30:36.123Z,5.47
2022-09-28T02:31:38.014Z,5.53
2022-09-28T02:32:42.133Z,5.52
2022-09-28T02:33:44.511Z,5.61
2022-09-28T02:34:46.325Z,5.60
2022-09-28T02:35:48.287Z,5.59
2022-09-28T02:36:50.047Z,5.63
2022-09-28T02:37:52.078Z,5.65
2022-09-28T02:38:57.825Z,5.65
2022-09-28T02:39:59.475Z,5.65
2022-09-28T02:41:09.513Z,5.66
2022-09-28T02:42:20.317Z,5.66
2022-09-28T02:43:24.233Z,5.63
2022-09-28T02:44:25.889Z,5.67
2022-09-28T02:45:39.173Z,5.67
2022-09-28T02:46:59.335Z,5.71
2022-09-28T02:48:13.256Z,5.73
2022-09-28T02:49:21.680Z,5.71
2022-09-28T02:50:39.321Z,5.71
2022-09-28T02:51:46.748Z,5.74
2022-09-28T02:53:18.639Z,5.77
2022-09-28T02:54:37.062Z,5.79
2022-09-28T02:55:44.726Z,5.81
2022-09-28T02:56:59.018Z,5.82
2022-09-28T02:58:26.968Z,5.87
2022-09-28T02:59:28.823Z,5.84
2022-09-28T03:00:34.050Z,5.85
2022-09-28T03:01:41.741Z,5.86
2022-09-28T03:02:58.625Z,5.90
2022-09-28T03:04:00.364Z,5.91
2022-09-28T03:05:10.611Z,5.94
2022-09-28T03:06:33.875Z,5.95
2022-09-28T03:07:48.258Z,5.97
2022-09-28T03:08:49.829Z,6.00
2022-09-28T03:10:05.215Z,6.04
2022-09-28T03:11:09.191Z,6.07
2022-09-28T03:12:13.263Z,6.08
2022-09-28T03:13:16.151Z,6.07
2022-09-28T03:14:18.188Z,6.03
2022-09-28T03:15:32.775Z,6.01
2022-09-28T03:16:34.979Z,6.02
2022-09-28T03:17:36.838Z,6.04
2022-09-28T03:18:47.653Z,6.05
2022-09-28T03:19:49.621Z,6.05
2022-09-28T03:20:51.948Z,6.12
2022-09-28T03:21:55.133Z,6.08
2022-09-28T03:23:23.272Z,6.06
2022-09-28T03:24:22.089Z,6.07
2022-09-28T03:25:23.790Z,6.08
2022-09-28T03:26:25.713Z,6.13
2022-09-28T03:27:27.429Z,6.13
2022-09-28T03:28:29.254Z,6.11
2022-09-28T03:29:32.561Z,6.10
2022-09-28T03:30:36.723Z,6.13
2022-09-28T03:31:38.662Z,6.10
2022-09-28T03:32:40.862Z,6.07
2022-09-28T03:33:45.960Z,6.07
2022-09-28T03:34:47.762Z,6.03
2022-09-28T03:35:50.064Z,5.98
2022-09-28T03:36:51.760Z,5.95
2022-09-28T03:37:54.513Z,5.82
2022-09-28T03:38:56.334Z,5.89
2022-09-28T03:39:58.370Z,5.88
2022-09-28T03:41:00.284Z,5.86
2022-09-28T03:42:04.723Z,5.85
2022-09-28T03:43:07.393Z,5.82
2022-09-28T03:44:09.349Z,5.88
2022-09-28T03:45:11.094Z,5.89
2022-09-28T03:46:13.075Z,5.90
2022-09-28T03:47:18.921Z,5.90
2022-09-28T03:48:25.144Z,5.89
2022-09-28T03:49:29.349Z,5.88
2022-09-28T03:50:31.013Z,5.89
2022-09-28T03:51:33.950Z,5.88
2022-09-28T03:52:35.542Z,5.89
2022-09-28T03:53:37.315Z,5.89
2022-09-28T03:54:39.117Z,5.88
2022-09-28T03:55:40.702Z,5.88
2022-09-28T03:56:42.466Z,5.88
2022-09-28T03:57:44.120Z,5.87
2022-09-28T03:58:45.855Z,5.87
2022-09-28T03:59:47.700Z,5.90
2022-09-28T04:00:49.504Z,5.89
2022-09-28T04:01:51.698Z,5.86
2022-09-28T04:02:53.588Z,5.87
2022-09-28T04:03:58.078Z,5.90
2022-09-28T04:05:00.277Z,5.87
2022-09-28T04:06:02.024Z,5.89
2022-09-28T04:07:03.738Z,5.86
2022-09-28T04:08:05.423Z,5.83
2022-09-28T04:09:07.253Z,5.80
2022-09-28T04:10:09.126Z,5.75
2022-09-28T04:11:13.898Z,5.76
2022-09-28T04:12:15.559Z,5.74
2022-09-28T04:13:17.210Z,5.72
2022-09-28T04:14:18.797Z,5.70
2022-09-28T04:15:20.402Z,5.69
2022-09-28T04:16:22.650Z,5.66
2022-09-28T04:17:39.931Z,5.60
2022-09-28T04:18:47.948Z,5.56
2022-09-28T04:20:12.179Z,5.50
2022-09-28T04:21:32.185Z,5.45
2022-09-28T04:22:44.218Z,5.40
2022-09-28T04:23:46.390Z,5.38
2022-09-28T04:24:48.108Z,5.35
2022-09-28T04:25:53.605Z,5.30
2022-09-28T04:27:18.184Z,5.29
2022-09-28T04:28:38.885Z,5.26
2022-09-28T04:29:42.728Z,5.24
2022-09-28T04:30:46.289Z,5.21
2022-09-28T04:31:49.367Z,5.21
2022-09-28T04:32:54.401Z,5.20
2022-09-28T04:33:57.163Z,5.20
2022-09-28T04:34:59.758Z,5.21
2022-09-28T04:36:01.720Z,5.20
2022-09-28T04:37:03.533Z,5.14
2022-09-28T04:38:05.439Z,5.11
2022-09-28T04:39:07.162Z,5.08
2022-09-28T04:40:09.259Z,5.06
2022-09-28T04:41:11.939Z,5.02
2022-09-28T04:42:14.261Z,5.01
2022-09-28T04:43:15.923Z,5.00
2022-09-28T04:44:17.710Z,4.98
2022-09-28T04:45:22.106Z,5.00
2022-09-28T04:46:24.391Z,4.99
2022-09-28T04:47:37.409Z,4.98
2022-09-28T04:49:14.460Z,4.97
2022-09-28T04:50:24.031Z,4.97
2022-09-28T04:51:41.469Z,4.96
2022-09-28T04:52:43.658Z,4.99
2022-09-28T04:53:45.408Z,5.00
2022-09-28T04:54:47.231Z,4.99
2022-09-28T04:55:56.138Z,5.01
2022-09-28T04:56:58.114Z,5.02
2022-09-28T04:58:03.067Z,5.04
2022-09-28T04:59:04.906Z,5.05
2022-09-28T05:00:10.548Z,5.10
2022-09-28T05:01:17.180Z,5.12
2022-09-28T05:02:48.308Z,5.14
2022-09-28T05:04:09.018Z,5.14
2022-09-28T05:05:17.989Z,5.17
2022-09-28T05:06:43.011Z,5.20
2022-09-28T05:07:45.634Z,5.19
2022-09-28T05:08:47.490Z,5.19
2022-09-28T05:09:50.111Z,5.21
2022-09-28T05:11:02.276Z,5.26
2022-09-28T05:12:09.791Z,5.28
2022-09-28T05:13:14.168Z,5.20
2022-09-28T05:14:16.241Z,5.24
2022-09-28T05:15:18.035Z,5.24
2022-09-28T05:16:19.930Z,5.25
2022-09-28T05:17:44.989Z,5.22
2022-09-28T05:19:05.752Z,5.23
2022-09-28T05:20:08.569Z,5.23
2022-09-28T05:21:14.173Z,5.25
2022-09-28T05:22:16.075Z,5.25
2022-09-28T05:23:22.640Z,5.28
2022-09-28T05:24:24.453Z,5.28
2022-09-28T05:25:27.029Z,5.28
2022-09-28T05:26:40.974Z,5.27
2022-09-28T05:27:45.024Z,5.29
2022-09-28T05:29:03.073Z,5.32
2022-09-28T05:30:08.085Z,5.34
2022-09-28T05:31:32.238Z,5.38
2022-09-28T05:32:54.374Z,5.36
2022-09-28T05:34:01.970Z,5.40
2022-09-28T05:35:05.722Z,5.42
2022-09-28T05:36:19.196Z,5.43
2022-09-28T05:37:20.798Z,5.46
2022-09-28T05:38:22.818Z,5.49
2022-09-28T05:39:24.575Z,5.50
2022-09-28T05:40:26.263Z,5.55
2022-09-28T05:41:28.090Z,5.57
2022-09-28T05:42:30.057Z,5.65
2022-09-28T05:43:32.833Z,5.62
2022-09-28T05:44:34.596Z,5.63
2022-09-28T05:45:37.884Z,5.63
2022-09-28T05:46:39.597Z,5.69
2022-09-28T05:47:45.675Z,5.69
2022-09-28T05:48:51.828Z,5.68
2022-09-28T05:49:54.058Z,5.74
2022-09-28T05:50:55.827Z,5.73
2022-09-28T05:51:57.514Z,5.75
2022-09-28T05:52:59.624Z,5.77
2022-09-28T05:54:05.607Z,5.79
2022-09-28T05:55:08.824Z,5.82
2022-09-28T05:56:10.673Z,5.87
2022-09-28T05:57:16.544Z,5.89
2022-09-28T05:58:18.282Z,5.93
2022-09-28T05:59:19.937Z,5.96
2022-09-28T06:00:22.684Z,5.99
2022-09-28T06:01:27.000Z,6.06
2022-09-28T06:02:29.881Z,6.11
2022-09-28T06:03:31.675Z,6.16
2022-09-28T06:04:33.801Z,6.21
2022-09-28T06:05:35.858Z,6.23
2022-09-28T06:06:38.419Z,6.25
2022-09-28T06:07:40.111Z,6.28
2022-09-28T06:08:45.826Z,6.30
2022-09-28T06:10:17.225Z,6.34
2022-09-28T06:11:21.122Z,6.35
2022-09-28T06:12:22.781Z,6.34
2022-09-28T06:13:29.544Z,6.34
2022-09-28T06:14:31.230Z,6.40
2022-09-28T06:15:34.107Z,6.43
2022-09-28T06:16:38.248Z,6.48
2022-09-28T06:17:43.941Z,6.50
2022-09-28T06:19:11.249Z,6.52
2022-09-28T06:20:42.493Z,6.48
2022-09-28T06:21:51.379Z,6.46
2022-09-28T06:22:53.419Z,6.46
2022-09-28T06:23:55.234Z,6.44
2022-09-28T06:24:57.133Z,6.41
2022-09-28T06:25:59.885Z,6.40
2022-09-28T06:27:01.495Z,6.41
2022-09-28T06:28:04.745Z,6.46
2022-09-28T06:29:06.512Z,6.49
2022-09-28T06:30:08.379Z,6.49
2022-09-28T06:31:10.326Z,6.45
2022-09-28T06:32:19.210Z,6.47
2022-09-28T06:33:25.278Z,6.43
2022-09-28T06:34:27.398Z,6.34
2022-09-28T06:35:31.566Z,6.39
2022-09-28T06:36:33.360Z,6.35
2022-09-28T06:37:35.150Z,6.37
2022-09-28T06:38:37.903Z,6.44
2022-09-28T06:39:39.673Z,6.51
2022-09-28T06:40:42.597Z,6.62
2022-09-28T06:41:44.394Z,6.68
2022-09-28T06:42:55.034Z,6.72
2022-09-28T06:44:17.116Z,6.79
2022-09-28T06:45:56.679Z,6.87
2022-09-28T06:47:04.090Z,6.93
2022-09-28T06:48:25.218Z,7.02
2022-09-28T06:49:35.421Z,7.09
2022-09-28T06:50:43.090Z,7.11
2022-09-28T06:52:08.062Z,7.13
2022-09-28T06:53:30.003Z,7.19
2022-09-28T06:54:35.317Z,7.28
2022-09-28T06:55:48.575Z,7.38
2022-09-28T06:56:50.223Z,7.47
2022-09-28T06:58:00.628Z,7.78
2022-09-28T06:59:02.661Z,8.40
2022-09-28T07:00:04.614Z,8.75
2022-09-28T07:01:06.437Z,8.72
2022-09-28T07:02:18.255Z,8.64
2022-09-28T07:03:38.843Z,8.60
2022-09-28T07:05:15.800Z,8.60
2022-09-28T07:06:40.950Z,8.59
2022-09-28T07:08:03.282Z,8.62
2022-09-28T07:09:32.891Z,8.59
2022-09-28T07:10:57.789Z,8.51
2022-09-28T07:12:14.984Z,8.61
2022-09-28T07:13:48.593Z,8.62
2022-09-28T07:14:56.756Z,8.57
2022-09-28T07:16:03.465Z,8.58
2022-09-28T07:17:13.517Z,8.56
2022-09-28T07:18:18.190Z,8.50
2022-09-28T07:19:19.890Z,8.50
2022-09-28T07:20:21.623Z,8.42
2022-09-28T07:21:29.943Z,8.32
2022-09-28T07:22:43.309Z,8.21
2022-09-28T07:23:54.569Z,8.12
2022-09-28T07:25:00.907Z,8.09
2022-09-28T07:26:24.042Z,8.04
2022-09-28T07:27:59.634Z,8.00
2022-09-28T07:29:24.941Z,7.96
2022-09-28T07:30:58.935Z,7.96
2022-09-28T07:32:39.699Z,7.94
2022-09-28T07:33:58.177Z,7.96
2022-09-28T07:35:17.721Z,7.92
2022-09-28T07:36:26.464Z,7.98
2022-09-28T07:37:28.517Z,7.94
2022-09-28T07:38:30.244Z,7.93
2022-09-28T07:39:52.048Z,7.94
2022-09-28T07:41:10.898Z,7.89
2022-09-28T07:42:17.420Z,7.90
2022-09-28T07:43:22.371Z,7.88
2022-09-28T07:44:26.257Z,7.85
2022-09-28T07:45:29.700Z,7.84
2022-09-28T07:46:32.208Z,7.87
2022-09-28T07:47:41.812Z,7.83
2022-09-28T07:49:14.981Z,7.98
2022-09-28T07:50:47.174Z,7.99
2022-09-28T07:52:05.773Z,8.01
2022-09-28T07:53:14.899Z,8.07
2022-09-28T07:54:32.256Z,8.10
2022-09-28T07:55:55.211Z,8.13
2022-09-28T07:57:16.755Z,8.17
2022-09-28T07:58:33.001Z,8.26
2022-09-28T07:59:54.990Z,8.33
2022-09-28T08:01:19.991Z,8.39
2022-09-28T08:02:22.330Z,8.45
2022-09-28T08:03:24.448Z,8.52
2022-09-28T08:04:27.847Z,8.50
2022-09-28T08:05:35.496Z,8.51
2022-09-28T08:06:37.274Z,8.51
2022-09-28T08:07:40.336Z,8.50
2022-09-28T08:08:44.440Z,8.51
2022-09-28T08:09:48.005Z,8.53
2022-09-28T08:11:02.081Z,8.59
2022-09-28T08:12:20.663Z,8.65
2022-09-28T08:13:44.949Z,8.72
2022-09-28T08:15:16.224Z,8.74
2022-09-28T08:16:22.576Z,8.76
2022-09-28T08:17:48.196Z,8.83
2022-09-28T08:18:51.848Z,8.88
2022-09-28T08:20:12.946Z,8.94
2022-09-28T08:21:33.540Z,9.01
2022-09-28T08:22:36.833Z,9.10
2022-09-28T08:23:38.744Z,9.15
2022-09-28T08:24:41.069Z,9.18
2022-09-28T08:25:49.197Z,9.26
2022-09-28T08:26:50.987Z,9.32
2022-09-28T08:27:54.305Z,9.36
2022-09-28T08:28:56.640Z,9.38
2022-09-28T08:30:27.773Z,9.41
2022-09-28T08:32:08.768Z,9.47
2022-09-28T08:33:13.759Z,9.53
2022-09-28T08:34:19.017Z,9.59
2022-09-28T08:35:45.422Z,9.64
2022-09-28T08:36:57.486Z,9.64
2022-09-28T08:38:19.040Z,9.71
2022-09-28T08:39:39.221Z,9.75
2022-09-28T08:41:15.068Z,9.71
2022-09-28T08:42:34.279Z,9.76
2022-09-28T08:44:02.042Z,9.83
2022-09-28T08:45:24.465Z,9.89
2022-09-28T08:47:07.353Z,9.92
2022-09-28T08:48:49.027Z,10.02
2022-09-28T08:50:22.241Z,10.13
2022-09-28T08:51:43.833Z,10.15
2022-09-28T08:52:59.270Z,10.17
2022-09-28T08:54:23.558Z,10.17
2022-09-28T08:55:28.173Z,10.31
2022-09-28T08:56:34.043Z,10.36
2022-09-28T08:57:41.562Z,10.42
2022-09-28T08:58:45.988Z,10.49
2022-09-28T08:59:51.709Z,10.53
2022-09-28T09:01:05.248Z,10.58
2022-09-28T09:02:13.852Z,10.61
2022-09-28T09:03:44.133Z,10.67
2022-09-28T09:05:14.397Z,10.71
2022-09-28T09:07:04.978Z,10.71
2022-09-28T09:08:23.460Z,10.76
2022-09-28T09:09:26.171Z,10.82
2022-09-28T09:10:31.174Z,10.82
2022-09-28T09:11:43.819Z,10.91
2022-09-28T09:13:04.190Z,10.98
2022-09-28T09:14:20.806Z,11.06
2022-09-28T09:15:41.150Z,11.11
2022-09-28T09:17:00.610Z,11.13
2022-09-28T09:18:25.736Z,11.22
2022-09-28T09:19:50.930Z,11.28
2022-09-28T09:21:00.830Z,11.27
2022-09-28T09:22:15.594Z,11.28
2022-09-28T09:23:18.163Z,11.28
2022-09-28T09:24:51.674Z,11.31
2022-09-28T09:25:58.879Z,11.39
2022-09-28T09:27:13.935Z,11.47
2022-09-28T09:28:27.718Z,11.53
2022-09-28T09:29:42.061Z,11.49
2022-09-28T09:30:49.482Z,11.51
2022-09-28T09:32:08.814Z,11.54
2022-09-28T09:33:33.592Z,11.58
2022-09-28T09:35:27.959Z,11.59
2022-09-28T09:36:55.488Z,11.57
2022-09-28T09:38:51.388Z,11.68
2022-09-28T09:40:25.858Z,11.79
2022-09-28T09:41:40.793Z,11.82
2022-09-28T09:43:17.870Z,11.86
2022-09-28T09:44:40.713Z,11.93
2022-09-28T09:46:13.986Z,12.02
2022-09-28T09:47:34.683Z,12.12
2022-09-28T09:48:42.264Z,12.19
2022-09-28T09:49:51.899Z,12.23
2022-09-28T09:50:57.347Z,12.23
2022-09-28T09:52:02.994Z,12.28
2022-09-28T09:53:23.566Z,12.37
2022-09-28T09:54:31.384Z,12.44
2022-09-28T09:55:45.155Z,12.45
2022-09-28T09:57:04.067Z,12.47
2022-09-28T09:58:40.665Z,12.49
2022-09-28T09:59:57.781Z,12.50
2022-09-28T10:01:19.529Z,12.48
2022-09-28T10:02:42.628Z,12.57
2022-09-28T10:03:55.697Z,12.62
2022-09-28T10:05:01.764Z,12.67
2022-09-28T10:06:15.884Z,12.75
2022-09-28T10:07:21.851Z,12.75
2022-09-28T10:08:27.854Z,12.78
2022-09-28T10:09:36.168Z,12.83
2022-09-28T10:10:56.092Z,12.80
2022-09-28T10:12:01.808Z,12.75
2022-09-28T10:13:06.942Z,12.78
2022-09-28T10:14:22.841Z,12.81
2022-09-28T10:15:33.099Z,12.78
2022-09-28T10:16:45.171Z,12.80
2022-09-28T10:17:52.778Z,12.88
2022-09-28T10:19:13.693Z,12.91
2022-09-28T10:20:44.799Z,13.03
2022-09-28T10:21:55.011Z,12.98
2022-09-28T10:23:02.650Z,12.91
2022-09-28T10:24:04.510Z,12.82
2022-09-28T10:25:10.213Z,12.82
2022-09-28T10:26:15.433Z,12.78
2022-09-28T10:27:18.579Z,12.78
2022-09-28T10:28:29.491Z,12.78
2022-09-28T10:29:36.985Z,12.95
2022-09-28T10:30:41.474Z,12.89
2022-09-28T10:31:44.791Z,12.92
2022-09-28T10:32:54.656Z,12.94
2022-09-28T10:33:57.218Z,13.05
2022-09-28T10:35:21.647Z,13.01
2022-09-28T10:36:27.600Z,13.01
2022-09-28T10:37:29.473Z,12.97
2022-09-28T10:38:37.092Z,12.97
2022-09-28T10:39:49.204Z,13.03
2022-09-28T10:40:55.534Z,13.01
2022-09-28T10:42:28.104Z,13.13
2022-09-28T10:43:33.102Z,13.11
2022-09-28T10:45:01.037Z,13.22
2022-09-28T10:46:21.363Z,13.06
2022-09-28T10:47:31.381Z,12.92
2022-09-28T10:48:46.783Z,12.91
2022-09-28T10:49:49.985Z,12.87
2022-09-28T10:51:01.430Z,12.80
2022-09-28T10:52:04.085Z,12.82
2022-09-28T10:53:26.638Z,12.74
2022-09-28T10:54:38.209Z,12.70
2022-09-28T10:55:41.137Z,12.57
2022-09-28T10:56:43.609Z,12.51
2022-09-28T10:57:50.650Z,12.43
2022-09-28T10:58:52.459Z,12.46
2022-09-28T11:00:04.950Z,12.46
2022-09-28T11:01:28.637Z,12.40
2022-09-28T11:02:35.669Z,12.34
2022-09-28T11:03:59.304Z,12.20
2022-09-28T11:05:05.024Z,12.15
2022-09-28T11:06:11.306Z,12.03
2022-09-28T11:07:20.441Z,11.95
2022-09-28T11:08:28.084Z,11.86
2022-09-28T11:09:33.123Z,11.88
2022-09-28T11:10:38.864Z,11.68
2022-09-28T11:11:46.127Z,11.59
2022-09-28T11:12:49.479Z,11.53
2022-09-28T11:13:57.040Z,11.68
2022-09-28T11:15:02.687Z,11.71
2022-09-28T11:16:05.109Z,11.64
2022-09-28T11:17:27.353Z,11.63
2022-09-28T11:18:31.791Z,11.61
2022-09-28T11:19:37.713Z,11.67
2022-09-28T11:20:43.124Z,11.71
2022-09-28T11:21:46.047Z,11.80
2022-09-28T11:22:50.966Z,11.91
2022-09-28T11:23:55.125Z,12.02
2022-09-28T11:25:14.029Z,12.06
2022-09-28T11:26:18.795Z,12.19
2022-09-28T11:27:25.018Z,12.40
2022-09-28T11:28:32.811Z,12.58
2022-09-28T11:29:41.218Z,12.74
2022-09-28T11:31:02.025Z,12.83
2022-09-28T11:32:15.671Z,12.86
2022-09-28T11:33:47.325Z,12.94
2022-09-28T11:35:18.722Z,13.01
2022-09-28T11:36:23.438Z,13.10
2022-09-28T11:37:33.668Z,12.98
2022-09-28T11:38:41.118Z,12.96
2022-09-28T11:39:58.488Z,13.00
2022-09-28T11:41:00.280Z,13.02
2022-09-28T11:42:05.161Z,12.95
2022-09-28T11:43:10.070Z,12.98
2022-09-28T11:44:35.644Z,13.04
2022-09-28T11:45:46.919Z,13.15
2022-09-28T11:47:00.113Z,13.18
2022-09-28T11:48:04.200Z,13.32
2022-09-28T11:49:16.039Z,13.54
2022-09-28T11:50:38.595Z,13.66
2022-09-28T11:51:41.683Z,13.82
2022-09-28T11:53:09.675Z,13.95
2022-09-28T11:54:13.734Z,14.20
2022-09-28T11:55:19.014Z,14.45
2022-09-28T11:56:39.653Z,14.74
2022-09-28T11:57:43.651Z,14.94
2022-09-28T11:58:48.701Z,15.18
2022-09-28T12:00:01.926Z,15.30
2022-09-28T12:01:08.044Z,15.60
2022-09-28T12:02:39.118Z,15.91
2022-09-28T12:03:50.437Z,16.14
2022-09-28T12:04:55.198Z,16.15
2022-09-28T12:06:00.398Z,16.16
2022-09-28T12:07:11.622Z,16.29
2022-09-28T12:08:17.625Z,16.35
2022-09-28T12:09:47.573Z,16.25
2022-09-28T12:10:57.597Z,16.00
2022-09-28T12:12:20.429Z,15.87
2022-09-28T12:13:26.962Z,15.96
2022-09-28T12:14:30.700Z,15.81
2022-09-28T12:16:06.877Z,15.83
2022-09-28T12:17:09.112Z,15.80
2022-09-28T12:18:33.718Z,15.88
2022-09-28T12:19:42.053Z,16.00
2022-09-28T12:20:49.226Z,16.11
2022-09-28T12:21:52.738Z,16.12
2022-09-28T12:23:14.607Z,16.11
2022-09-28T12:24:22.390Z,16.06
2022-09-28T12:25:24.192Z,16.06
2022-09-28T12:26:25.788Z,15.97
2022-09-28T12:27:32.421Z,15.96
2022-09-28T12:28:39.742Z,15.88
2022-09-28T12:30:02.412Z,15.82
2022-09-28T12:31:13.086Z,15.78
2022-09-28T12:32:14.948Z,15.64
2022-09-28T12:33:16.650Z,15.58
2022-09-28T12:34:18.815Z,15.52
2022-09-28T12:35:47.971Z,15.48
2022-09-28T12:36:49.859Z,15.36
2022-09-28T12:37:54.679Z,15.39
2022-09-28T12:39:40.962Z,15.18
2022-09-28T12:40:37.840Z,14.83
2022-09-28T12:42:06.010Z,14.68
2022-09-28T12:43:28.520Z,14.46
2022-09-28T12:44:45.734Z,14.22
2022-09-28T12:46:17.277Z,14.09
2022-09-28T12:47:29.852Z,13.95
2022-09-28T12:48:37.634Z,13.87
2022-09-28T12:51:30.949Z,13.75
2022-09-28T12:54:04.664Z,13.66
2022-09-28T12:55:14.673Z,13.62
2022-09-28T12:56:20.862Z,13.59
2022-09-28T12:57:37.369Z,13.57
2022-09-28T12:58:44.085Z,13.58
2022-09-28T13:00:02.740Z,13.42
2022-09-28T13:01:07.951Z,13.33
2022-09-28T13:02:15.793Z,13.34
2022-09-28T13:03:46.989Z,13.34
2022-09-28T13:05:08.899Z,13.33
2022-09-28T13:06:29.171Z,13.40
2022-09-28T13:07:33.598Z,13.43
2022-09-28T13:08:47.713Z,13.51
2022-09-28T13:09:55.595Z,13.57
2022-09-28T13:11:15.834Z,13.60
2022-09-28T13:12:25.541Z,13.64
2022-09-28T13:13:45.779Z,13.67
2022-09-28T13:14:57.943Z,13.69
2022-09-28T13:16:05.635Z,13.67
2022-09-28T13:17:09.989Z,13.60
2022-09-28T13:18:17.615Z,13.51
2022-09-28T13:19:28.554Z,13.50
2022-09-28T13:20:35.233Z,13.39
2022-09-28T13:21:52.077Z,13.33
2022-09-28T13:23:26.339Z,13.30
2022-09-28T13:24:33.352Z,13.26
2022-09-28T13:25:36.437Z,13.20
2022-09-28T13:26:41.563Z,13.12
2022-09-28T13:27:47.794Z,13.11
2022-09-28T13:28:50.933Z,13.01
2022-09-28T13:29:58.761Z,12.95
2022-09-28T13:31:03.429Z,12.94
2022-09-28T13:32:07.981Z,12.91
2022-09-28T13:33:15.108Z,12.84
2022-09-28T13:34:20.173Z,12.74
2022-09-28T13:35:22.356Z,12.69
2022-09-28T13:36:29.995Z,12.65
2022-09-28T13:37:33.849Z,12.61
2022-09-28T13:38:49.098Z,12.57
2022-09-28T13:40:05.511Z,12.55
2022-09-28T13:41:09.298Z,12.52
2022-09-28T13:42:21.201Z,12.46
2022-09-28T13:43:31.299Z,12.42
2022-09-28T13:44:46.581Z,12.36
2022-09-28T13:46:08.496Z,12.35
2022-09-28T13:47:10.175Z,12.37
2022-09-28T13:48:30.577Z,12.37
2022-09-28T13:49:41.075Z,12.36
2022-09-28T13:50:45.614Z,12.41
2022-09-28T13:51:59.338Z,12.36
2022-09-28T13:53:03.101Z,12.34
2022-09-28T13:54:06.289Z,12.33
2022-09-28T13:55:16.268Z,12.31
2022-09-28T13:56:33.689Z,12.31
2022-09-28T13:57:41.239Z,12.28
2022-09-28T13:58:45.443Z,12.26
2022-09-28T13:59:55.945Z,12.28
2022-09-28T14:01:00.381Z,12.28
2022-09-28T14:02:13.883Z,12.31
2022-09-28T14:03:19.041Z,12.30
2022-09-28T14:04:26.169Z,12.30
2022-09-28T14:05:33.853Z,12.28
2022-09-28T14:06:35.815Z,12.25
2022-09-28T14:07:37.448Z,12.26
2022-09-28T14:09:04.670Z,12.28
2022-09-28T14:10:15.509Z,12.28
2022-09-28T14:11:39.651Z,12.28
2022-09-28T14:12:51.044Z,12.26
2022-09-28T14:13:58.520Z,12.21
2022-09-28T14:15:00.626Z,12.15
2022-09-28T14:16:17.629Z,12.18
2022-09-28T14:17:19.203Z,12.14
2022-09-28T14:18:33.451Z,12.14
2022-09-28T14:19:35.114Z,12.10
2022-09-28T14:20:36.839Z,12.08
2022-09-28T14:21:57.691Z,12.05
2022-09-28T14:23:21.969Z,11.98
2022-09-28T14:24:44.660Z,11.90
2022-09-28T14:25:58.676Z,11.87
2022-09-28T14:27:23.424Z,11.83
2022-09-28T14:28:43.593Z,11.78
2022-09-28T14:29:45.245Z,11.75
2022-09-28T14:30:47.808Z,11.74
2022-09-28T14:31:49.484Z,11.74
2022-09-28T14:33:21.746Z,11.73
2022-09-28T14:34:42.116Z,11.70
2022-09-28T14:35:47.734Z,11.72
2022-09-28T14:37:10.352Z,11.67
2022-09-28T14:38:34.428Z,11.64
2022-09-28T14:39:56.387Z,11.54
2022-09-28T14:41:10.275Z,11.47
2022-09-28T14:42:20.675Z,11.44
2022-09-28T14:43:25.246Z,11.41
2022-09-28T14:44:26.845Z,11.39
2022-09-28T14:45:35.851Z,11.33
2022-09-28T14:46:45.115Z,11.29
2022-09-28T14:48:05.319Z,11.28
2022-09-28T14:49:09.487Z,11.30
2022-09-28T14:50:37.575Z,11.34
2022-09-28T14:51:41.794Z,11.38
2022-09-28T14:52:48.695Z,11.39
2022-09-28T14:53:51.028Z,11.44
2022-09-28T14:54:56.772Z,11.46
2022-09-28T14:55:59.232Z,11.53
2022-09-28T14:57:07.547Z,11.57
2022-09-28T14:58:15.736Z,11.66
2022-09-28T14:59:18.686Z,11.72
2022-09-28T15:00:21.792Z,11.78
2022-09-28T15:01:24.964Z,11.81
2022-09-28T15:02:31.314Z,11.83
2022-09-28T15:03:34.930Z,11.81
2022-09-28T15:04:42.506Z,11.80
2022-09-28T15:05:49.233Z,11.80
2022-09-28T15:06:51.268Z,11.79
2022-09-28T15:07:55.594Z,11.81
2022-09-28T15:08:57.180Z,11.80
2022-09-28T15:10:00.316Z,11.80
2022-09-28T15:11:02.095Z,11.82
2022-09-28T15:12:14.424Z,11.84
2022-09-28T15:13:20.220Z,11.85
2022-09-28T15:14:23.925Z,11.85
2022-09-28T15:15:36.556Z,11.85
2022-09-28T15:16:38.367Z,11.82
2022-09-28T15:17:40.484Z,11.82
2022-09-28T15:19:01.245Z,11.84